createdAt,value
2018-12-24T00:00:17.532Z,98871.17
2018-12-24T00:02:45.327Z,98888.83
2018-12-24T00:05:13.189Z,98907.18
2018-12-24T00:07:40.959Z,98914.47
2018-12-24T00:10:08.787Z,98919.78
2018-12-24T00:12:36.898Z,98927.26
2018-12-24T00:15:04.814Z,98927.68
2018-12-24T00:17:33.287Z,98928.04
2018-12-24T00:20:01.090Z,98929.61
2018-12-24T00:22:28.925Z,98947.36
2018-12-24T00:24:56.748Z,98930.84
2018-12-24T00:27:24.591Z,98930.55
2018-12-24T00:29:52.398Z,98947.65
2018-12-24T00:32:20.473Z,98951.98
2018-12-24T00:34:48.272Z,98956.59
2018-12-24T00:37:16.092Z,98966.06
2018-12-24T00:39:44.301Z,98976.06
2018-12-24T00:42:15.917Z,98976.89
2018-12-24T00:44:41.979Z,98985.09
2018-12-24T00:47:09.814Z,98979.06
2018-12-24T00:49:37.619Z,98987.91
2018-12-24T00:52:05.431Z,99011.22
2018-12-24T00:54:33.216Z,99000.89
2018-12-24T00:57:01.034Z,99010.41
2018-12-24T00:59:28.879Z,99021.39
2018-12-24T01:01:56.795Z,99034.03
2018-12-24T01:04:24.661Z,99049.13
2018-12-24T01:06:52.475Z,99064.66
2018-12-24T01:09:20.313Z,99058.63
2018-12-24T01:11:53.242Z,99055.35
2018-12-24T01:14:21.023Z,99073.20
2018-12-24T01:16:49.551Z,99063.05
2018-12-24T01:19:17.313Z,99077.30
2018-12-24T01:21:45.365Z,99084.00
2018-12-24T01:24:13.899Z,99070.92
2018-12-24T01:26:41.712Z,99071.23
2018-12-24T01:29:09.536Z,99077.81
2018-12-24T01:31:42.384Z,99076.98
2018-12-24T01:34:10.223Z,99096.48
2018-12-24T01:36:38.013Z,99108.61
2018-12-24T01:39:06.674Z,99122.52
2018-12-24T01:41:39.569Z,99137.08
2018-12-24T01:44:07.436Z,99147.39
2018-12-24T01:46:35.215Z,99162.13
2018-12-24T01:49:03.036Z,99168.84
2018-12-24T01:51:31.119Z,99176.86
2018-12-24T01:53:58.933Z,99191.44
2018-12-24T01:56:26.736Z,99192.75
2018-12-24T01:58:54.597Z,99202.41
2018-12-24T02:01:22.522Z,99222.05
2018-12-24T02:03:50.299Z,99219.76
2018-12-24T02:06:18.130Z,99225.35
2018-12-24T02:08:45.962Z,99242.69
2018-12-24T02:11:23.792Z,99248.13
2018-12-24T02:13:51.563Z,99257.98
2018-12-24T02:16:19.345Z,99257.31
2018-12-24T02:18:47.138Z,99269.91
2018-12-24T02:21:15.052Z,99278.24
2018-12-24T02:23:42.863Z,99287.89
2018-12-24T02:26:10.670Z,99288.05
2018-12-24T02:28:38.433Z,99300.14
2018-12-24T02:31:06.444Z,99300.44
2018-12-24T02:33:34.239Z,99317.94
2018-12-24T02:36:02.012Z,99326.40
2018-12-24T02:38:29.833Z,99340.22
2018-12-24T02:40:57.802Z,99337.91
2018-12-24T02:43:25.656Z,99353.23
2018-12-24T02:45:53.462Z,99350.58
2018-12-24T02:48:21.268Z,99361.22
2018-12-24T02:50:49.099Z,99362.82
2018-12-24T02:53:36.358Z,99363.66
2018-12-24T02:56:04.150Z,99371.14
2018-12-24T02:58:31.963Z,99369.18
2018-12-24T03:00:59.885Z,99371.18
2018-12-24T03:03:27.694Z,99377.92
2018-12-24T03:05:55.481Z,99380.34
2018-12-24T03:08:23.251Z,99383.16
2018-12-24T03:10:51.240Z,99388.58
2018-12-24T03:13:19.034Z,99402.62
2018-12-24T03:15:46.849Z,99417.31
2018-12-24T03:18:14.636Z,99419.44
2018-12-24T03:20:42.605Z,99421.52
2018-12-24T03:23:12.791Z,99420.06
2018-12-24T03:25:40.612Z,99420.53
2018-12-24T03:28:08.433Z,99436.74
2018-12-24T03:30:36.591Z,99451.93
2018-12-24T03:33:04.392Z,99461.38
2018-12-24T03:35:32.191Z,99462.32
2018-12-24T03:37:59.976Z,99462.12
2018-12-24T03:40:33.049Z,99469.63
2018-12-24T03:43:00.890Z,99479.54
2018-12-24T03:45:28.681Z,99480.66
2018-12-24T03:47:56.491Z,99479.98
2018-12-24T03:50:24.690Z,99480.80
2018-12-24T03:52:52.525Z,99484.86
2018-12-24T03:55:20.327Z,99495.11
2018-12-24T03:57:48.093Z,99515.83
2018-12-24T04:00:15.914Z,99520.70
2018-12-24T04:02:43.750Z,99530.08
2018-12-24T04:05:11.560Z,99538.73
2018-12-24T04:07:39.332Z,99550.56
2018-12-24T04:10:07.144Z,99557.30
2018-12-24T04:12:37.180Z,99557.63
2018-12-24T04:15:05.031Z,99564.49
2018-12-24T04:17:32.877Z,99576.39
2018-12-24T04:20:00.694Z,99576.56
2018-12-24T04:22:28.453Z,99583.95
2018-12-24T04:24:56.235Z,99588.55
2018-12-24T04:27:24.061Z,99592.70
2018-12-24T04:29:51.899Z,99600.93
2018-12-24T04:32:19.690Z,99606.96
2018-12-24T04:34:47.488Z,99612.53
2018-12-24T04:37:15.302Z,99615.47
2018-12-24T04:39:43.109Z,99629.09
2018-12-24T04:42:11.980Z,99632.34
2018-12-24T04:44:39.818Z,99638.68
2018-12-24T04:47:07.718Z,99651.05
2018-12-24T04:49:35.513Z,99657.98
2018-12-24T04:52:03.402Z,99664.38
2018-12-24T04:54:31.208Z,99661.29
2018-12-24T04:56:59.301Z,99669.30
2018-12-24T04:59:27.171Z,99681.05
2018-12-24T05:01:55.059Z,99686.45
2018-12-24T05:04:22.881Z,99697.27
2018-12-24T05:06:50.738Z,99700.95
2018-12-24T05:09:18.516Z,99710.00
2018-12-24T05:11:46.414Z,99711.17
2018-12-24T05:14:14.222Z,99721.16
2018-12-24T05:16:42.024Z,99732.60
2018-12-24T05:19:10.153Z,99742.86
2018-12-24T05:21:38.078Z,99761.98
2018-12-24T05:24:05.871Z,99767.72
2018-12-24T05:26:33.649Z,99773.45
2018-12-24T05:29:01.452Z,99781.83
2018-12-24T05:31:29.274Z,99788.52
2018-12-24T05:33:57.078Z,99791.14
2018-12-24T05:36:24.869Z,99803.50
2018-12-24T05:38:52.662Z,99823.47
2018-12-24T05:41:20.559Z,99819.05
2018-12-24T05:43:49.561Z,99835.47
2018-12-24T05:46:17.751Z,99842.72
2018-12-24T05:48:45.547Z,99848.86
2018-12-24T05:51:13.299Z,99858.00
2018-12-24T05:53:41.100Z,99859.52
2018-12-24T05:56:09.991Z,99867.09
2018-12-24T05:58:37.832Z,99881.84
2018-12-24T06:01:05.701Z,99886.19
2018-12-24T06:03:33.514Z,99895.73
2018-12-24T06:06:01.331Z,99901.19
2018-12-24T06:08:29.104Z,99907.49
2018-12-24T06:10:57.160Z,99902.91
2018-12-24T06:13:24.948Z,99913.08
2018-12-24T06:15:52.753Z,99907.95
2018-12-24T06:18:20.565Z,99916.95
2018-12-24T06:20:48.470Z,99930.47
2018-12-24T06:23:16.276Z,99937.16
2018-12-24T06:25:44.071Z,99942.32
2018-12-24T06:28:11.861Z,99948.13
2018-12-24T06:30:39.804Z,99952.44
2018-12-24T06:33:07.545Z,99957.23
2018-12-24T06:35:35.402Z,99972.39
2018-12-24T06:38:03.177Z,99982.45
2018-12-24T06:40:31.237Z,99983.36
2018-12-24T06:42:59.020Z,99992.41
2018-12-24T06:45:26.841Z,100001.97
2018-12-24T06:47:54.624Z,100004.88
2018-12-24T06:50:22.415Z,100013.10
2018-12-24T06:52:50.569Z,100018.38
2018-12-24T06:55:38.146Z,100025.58
2018-12-24T06:58:08.767Z,100032.30
2018-12-24T07:00:36.706Z,100032.08
2018-12-24T07:03:04.493Z,100042.48
2018-12-24T07:05:32.300Z,100060.33
2018-12-24T07:08:00.122Z,100059.83
2018-12-24T07:10:28.071Z,100076.55
2018-12-24T07:12:55.844Z,100080.36
2018-12-24T07:15:23.615Z,100086.05
2018-12-24T07:17:51.456Z,100095.65
2018-12-24T07:20:19.269Z,100096.77
2018-12-24T07:22:47.040Z,100104.86
2018-12-24T07:25:14.891Z,100112.15
2018-12-24T07:27:42.684Z,100116.42
2018-12-24T07:30:10.576Z,100124.91
2018-12-24T07:32:38.348Z,100139.02
2018-12-24T07:35:06.171Z,100142.77
2018-12-24T07:37:33.980Z,100138.81
2018-12-24T07:40:01.846Z,100137.00
2018-12-24T07:42:29.646Z,100142.80
2018-12-24T07:44:57.469Z,100148.42
2018-12-24T07:47:25.282Z,100152.13
2018-12-24T07:49:58.988Z,100150.72
2018-12-24T07:52:32.047Z,100157.05
2018-12-24T07:55:08.233Z,100172.70
2018-12-24T07:57:39.300Z,100179.73
2018-12-24T08:00:07.654Z,100185.41
2018-12-24T08:02:35.476Z,100192.69
2018-12-24T08:05:03.309Z,100197.46
2018-12-24T08:07:31.219Z,100215.66
2018-12-24T08:09:58.995Z,100219.80
2018-12-24T08:12:27.066Z,100226.03
2018-12-24T08:14:54.914Z,100230.59
2018-12-24T08:17:23.086Z,100234.91
2018-12-24T08:19:50.871Z,100238.00
2018-12-24T08:22:24.254Z,100249.30
2018-12-24T08:24:52.143Z,100254.61
2018-12-24T08:27:19.930Z,100258.70
2018-12-24T08:29:47.769Z,100266.45
2018-12-24T08:32:20.685Z,100261.33
2018-12-24T08:34:48.492Z,100264.83
2018-12-24T08:37:16.291Z,100275.80
2018-12-24T08:39:44.124Z,100281.73
2018-12-24T08:42:17.115Z,100279.33
2018-12-24T08:44:44.953Z,100288.88
2018-12-24T08:47:12.766Z,100291.87
2018-12-24T08:49:40.591Z,100304.42
2018-12-24T08:52:08.505Z,100307.27
2018-12-24T08:54:36.251Z,100315.22
2018-12-24T08:57:04.124Z,100320.56
2018-12-24T08:59:31.890Z,100323.70
2018-12-24T09:01:59.875Z,100329.08
2018-12-24T09:04:27.654Z,100333.92
2018-12-24T09:06:55.461Z,100336.34
2018-12-24T09:09:23.456Z,100343.58
2018-12-24T09:11:56.513Z,100350.58
2018-12-24T09:14:24.374Z,100343.88
2018-12-24T09:16:52.203Z,100348.28
2018-12-24T09:19:19.999Z,100351.78
2018-12-24T09:21:52.865Z,100350.33
2018-12-24T09:24:20.659Z,100353.66
2018-12-24T09:26:48.523Z,100362.66
2018-12-24T09:29:16.328Z,100369.09
2018-12-24T09:31:49.429Z,100372.98
2018-12-24T09:34:17.279Z,100366.72
2018-12-24T09:36:45.111Z,100371.97
2018-12-24T09:39:12.940Z,100371.78
2018-12-24T09:41:40.726Z,100379.22
2018-12-24T09:44:08.543Z,100386.11
2018-12-24T09:46:36.410Z,100390.27
2018-12-24T09:49:04.295Z,100388.17
2018-12-24T09:51:51.813Z,100392.06
2018-12-24T09:54:19.697Z,100395.12
2018-12-24T09:56:47.543Z,100398.56
2018-12-24T09:59:15.405Z,100400.73
2018-12-24T10:01:43.243Z,100399.43
2018-12-24T10:04:48.687Z,100404.00
2018-12-24T10:07:47.305Z,100400.69
2018-12-24T10:10:17.798Z,100404.13
2018-12-24T10:12:45.634Z,100409.46
2018-12-24T10:15:13.502Z,100411.77
2018-12-24T10:17:41.381Z,100413.68
2018-12-24T10:20:09.204Z,100414.48
2018-12-24T10:22:37.002Z,100414.94
2018-12-24T10:25:05.372Z,100409.72
2018-12-24T10:27:33.164Z,100412.41
2018-12-24T10:30:00.997Z,100416.33
2018-12-24T10:32:28.785Z,100417.38
2018-12-24T10:34:56.620Z,100423.98
2018-12-24T10:37:24.402Z,100422.85
2018-12-24T10:39:52.218Z,100431.28
2018-12-24T10:42:20.458Z,100428.44
2018-12-24T10:44:48.276Z,100430.75
2018-12-24T10:47:16.108Z,100428.36
2018-12-24T10:49:43.928Z,100428.23
2018-12-24T10:52:17.592Z,100428.78
2018-12-24T10:54:45.397Z,100428.45
2018-12-24T10:57:13.146Z,100429.74
2018-12-24T10:59:40.936Z,100429.59
2018-12-24T11:02:08.741Z,100433.69
2018-12-24T11:04:36.544Z,100427.94
2018-12-24T11:07:04.397Z,100432.05
2018-12-24T11:09:33.941Z,100435.12
2018-12-24T11:12:03.573Z,100437.88
2018-12-24T11:14:31.339Z,100441.14
2018-12-24T11:16:59.175Z,100443.19
2018-12-24T11:19:31.142Z,100443.42
2018-12-24T11:21:59.119Z,100441.33
2018-12-24T11:24:29.500Z,100446.56
2018-12-24T11:26:57.412Z,100451.18
2018-12-24T11:29:25.133Z,100448.20
2018-12-24T11:31:58.264Z,100459.81
2018-12-24T11:34:26.062Z,100461.92
2018-12-24T11:36:53.907Z,100462.59
2018-12-24T11:39:21.688Z,100465.91
2018-12-24T11:42:04.642Z,100461.86
2018-12-24T11:44:32.505Z,100472.41
2018-12-24T11:47:00.364Z,100470.63
2018-12-24T11:49:28.201Z,100472.36
2018-12-24T11:51:56.029Z,100481.64
2018-12-24T11:54:23.795Z,100479.23
2018-12-24T11:56:51.624Z,100486.98
2018-12-24T11:59:19.417Z,100495.34
2018-12-24T12:01:47.224Z,100495.01
2018-12-24T12:04:15.024Z,100495.67
2018-12-24T12:06:44.918Z,100494.59
2018-12-24T12:09:12.730Z,100492.66
2018-12-24T12:11:40.549Z,100491.47
2018-12-24T12:14:08.303Z,100487.74
2018-12-24T12:16:37.525Z,100490.41
2018-12-24T12:19:05.344Z,100500.05
2018-12-24T12:21:33.431Z,100502.71
2018-12-24T12:24:01.204Z,100494.09
2018-12-24T12:26:30.313Z,100500.86
2018-12-24T12:28:58.372Z,100494.27
2018-12-24T12:31:26.329Z,100496.08
2018-12-24T12:33:54.171Z,100495.66
2018-12-24T12:36:21.961Z,100507.58
2018-12-24T12:38:49.792Z,100515.50
2018-12-24T12:41:17.679Z,100515.88
2018-12-24T12:43:45.484Z,100511.75
2018-12-24T12:46:13.342Z,100518.59
2018-12-24T12:48:41.187Z,100517.81
2018-12-24T12:51:09.069Z,100526.94
2018-12-24T12:53:36.794Z,100532.66
2018-12-24T12:56:04.569Z,100538.94
2018-12-24T12:58:32.364Z,100542.00
2018-12-24T13:01:05.446Z,100547.45
2018-12-24T13:03:33.408Z,100545.70
2018-12-24T13:06:01.200Z,100552.36
2018-12-24T13:08:29.180Z,100546.80
2018-12-24T13:10:57.046Z,100549.39
2018-12-24T13:13:24.844Z,100555.17
2018-12-24T13:15:59.521Z,100558.19
2018-12-24T13:18:22.419Z,100566.91
2018-12-24T13:20:55.577Z,100571.34
2018-12-24T13:23:23.361Z,100569.70
2018-12-24T13:25:51.236Z,100551.33
2018-12-24T13:28:19.042Z,100576.29
2018-12-24T13:30:46.838Z,100580.01
2018-12-24T13:33:14.708Z,100582.53
2018-12-24T13:35:42.504Z,100593.08
2018-12-24T13:38:10.314Z,100576.97
2018-12-24T13:40:43.409Z,100617.78
2018-12-24T13:43:11.304Z,100616.28
2018-12-24T13:45:39.055Z,100614.61
2018-12-24T13:48:06.840Z,100623.55
2018-12-24T13:50:34.786Z,100629.10
2018-12-24T13:53:02.562Z,100633.08
2018-12-24T13:55:30.341Z,100633.10
2018-12-24T13:57:58.122Z,100638.28
2018-12-24T14:00:25.958Z,100644.73
2018-12-24T14:02:53.869Z,100650.84
2018-12-24T14:05:21.727Z,100653.59
2018-12-24T14:07:49.665Z,100670.42
2018-12-24T14:10:17.569Z,100676.01
2018-12-24T14:12:45.607Z,100673.98
2018-12-24T14:15:13.476Z,100682.77
2018-12-24T14:17:41.543Z,100691.03
2018-12-24T14:20:09.406Z,100691.47
2018-12-24T14:22:37.204Z,100701.32
2018-12-24T14:25:05.244Z,100710.73
2018-12-24T14:27:33.113Z,100714.51
2018-12-24T14:30:00.970Z,100723.67
2018-12-24T14:32:33.948Z,100721.95
2018-12-24T14:35:01.813Z,100719.19
2018-12-24T14:37:29.674Z,100723.97
2018-12-24T14:39:58.455Z,100726.89
2018-12-24T14:42:26.426Z,100695.66
2018-12-24T14:44:54.249Z,100737.83
2018-12-24T14:47:22.139Z,100731.84
2018-12-24T14:49:54.659Z,100735.74
2018-12-24T14:52:22.750Z,100754.15
2018-12-24T14:54:50.622Z,100758.22
2018-12-24T14:57:18.400Z,100745.56
2018-12-24T14:59:46.277Z,100750.70
2018-12-24T15:02:14.242Z,100757.68
2018-12-24T15:04:42.050Z,100772.48
2018-12-24T15:07:09.849Z,100776.22
2018-12-24T15:09:37.671Z,100779.48
2018-12-24T15:12:10.730Z,100796.80
2018-12-24T15:14:38.563Z,100791.70
2018-12-24T15:17:06.534Z,100790.20
2018-12-24T15:19:34.436Z,100788.64
2018-12-24T15:22:05.916Z,100789.05
2018-12-24T15:24:33.712Z,100792.55
2018-12-24T15:27:01.555Z,100788.69
2018-12-24T15:29:29.456Z,100793.77
2018-12-24T15:31:57.458Z,100804.08
2018-12-24T15:34:25.321Z,100808.91
2018-12-24T15:36:53.115Z,100811.95
2018-12-24T15:39:20.963Z,100816.56
2018-12-24T15:41:53.977Z,100825.45
2018-12-24T15:44:21.730Z,100838.09
2018-12-24T15:46:49.505Z,100842.28
2018-12-24T15:49:17.338Z,100850.06
2018-12-24T15:51:45.345Z,100848.14
2018-12-24T15:54:13.340Z,100853.30
2018-12-24T15:56:41.075Z,100857.73
2018-12-24T15:59:08.917Z,100868.33
2018-12-24T16:01:41.903Z,100874.22
2018-12-24T16:04:09.725Z,100893.13
2018-12-24T16:06:37.567Z,100889.44
2018-12-24T16:09:07.075Z,100882.51
2018-12-24T16:11:40.060Z,100880.23
2018-12-24T16:14:07.884Z,100897.87
2018-12-24T16:16:35.726Z,100893.42
2018-12-24T16:19:03.534Z,100890.63
2018-12-24T16:21:31.447Z,100894.47
2018-12-24T16:23:59.585Z,100898.25
2018-12-24T16:26:27.557Z,100903.91
2018-12-24T16:28:55.341Z,100908.80
2018-12-24T16:31:28.312Z,100916.38
2018-12-24T16:33:56.143Z,100917.25
2018-12-24T16:36:23.923Z,100917.03
2018-12-24T16:38:51.752Z,100920.64
2018-12-24T16:41:19.686Z,100920.35
2018-12-24T16:43:47.490Z,100919.45
2018-12-24T16:46:15.348Z,100922.20
2018-12-24T16:48:43.136Z,100917.41
2018-12-24T16:51:11.021Z,100923.95
2018-12-24T16:53:40.638Z,100920.11
2018-12-24T16:56:08.598Z,100915.97
2018-12-24T16:58:36.398Z,100916.27
2018-12-24T17:01:09.506Z,100913.89
2018-12-24T17:03:37.293Z,100917.34
2018-12-24T17:06:05.082Z,100923.03
2018-12-24T17:08:32.917Z,100932.22
2018-12-24T17:11:00.809Z,100940.91
2018-12-24T17:13:28.620Z,100950.52
2018-12-24T17:15:56.465Z,100957.08
2018-12-24T17:18:24.288Z,100970.56
2018-12-24T17:20:52.257Z,100984.75
2018-12-24T17:23:20.066Z,100982.44
2018-12-24T17:25:47.887Z,100980.98
2018-12-24T17:28:15.647Z,100985.63
2018-12-24T17:30:43.520Z,100983.89
2018-12-24T17:33:11.318Z,100991.75
2018-12-24T17:35:39.170Z,100987.04
2018-12-24T17:38:07.005Z,100989.34
2018-12-24T17:40:34.880Z,100992.38
2018-12-24T17:43:02.651Z,100990.17
2018-12-24T17:45:30.500Z,100980.69
2018-12-24T17:47:58.265Z,100982.20
2018-12-24T17:50:26.131Z,100978.18
2018-12-24T17:52:54.072Z,100979.92
2018-12-24T17:55:21.924Z,100983.06
2018-12-24T17:57:49.706Z,100980.37
2018-12-24T18:00:17.517Z,100978.19
2018-12-24T18:02:45.372Z,100974.27
2018-12-24T18:05:13.222Z,100977.70
2018-12-24T18:07:40.995Z,100973.76
2018-12-24T18:10:08.797Z,100970.27
2018-12-24T18:12:36.568Z,100968.75
2018-12-24T18:15:04.508Z,100968.64
2018-12-24T18:17:32.345Z,100977.20
2018-12-24T18:20:00.194Z,100970.64
2018-12-24T18:22:28.108Z,100976.08
2018-12-24T18:24:55.883Z,100983.70
2018-12-24T18:27:23.698Z,100992.16
2018-12-24T18:29:51.511Z,101014.13
2018-12-24T18:32:24.469Z,101021.08
2018-12-24T18:34:53.736Z,101025.20
2018-12-24T18:37:21.503Z,101018.55
2018-12-24T18:39:49.330Z,101017.91
2018-12-24T18:42:17.143Z,101021.20
2018-12-24T18:44:44.933Z,101030.85
2018-12-24T18:47:12.755Z,101037.77
2018-12-24T18:49:40.570Z,101038.93
2018-12-24T18:52:13.648Z,101045.20
2018-12-24T18:54:41.430Z,101050.06
2018-12-24T18:57:09.273Z,101052.11
2018-12-24T18:59:37.092Z,101058.24
2018-12-24T19:02:04.999Z,101065.81
2018-12-24T19:04:35.044Z,101068.50
2018-12-24T19:07:03.191Z,101076.55
2018-12-24T19:09:30.986Z,101088.97
2018-12-24T19:12:04.089Z,101095.99
2018-12-24T19:14:31.910Z,101105.19
2018-12-24T19:16:59.757Z,101110.34
2018-12-24T19:19:27.898Z,101122.82
2018-12-24T19:21:55.730Z,101121.14
2018-12-24T19:24:23.518Z,101131.02
2018-12-24T19:26:51.463Z,101134.47
2018-12-24T19:29:19.284Z,101146.41
2018-12-24T19:31:47.100Z,101155.27
2018-12-24T19:34:14.952Z,101162.13
2018-12-24T19:36:43.177Z,101148.82
2018-12-24T19:39:12.272Z,101147.41
2018-12-24T19:41:40.097Z,101150.75
2018-12-24T19:44:07.920Z,101146.18
2018-12-24T19:46:35.801Z,101142.83
2018-12-24T19:49:03.700Z,101151.00
2018-12-24T19:51:33.118Z,101155.95
2018-12-24T19:54:00.972Z,101161.30
2018-12-24T19:56:28.818Z,101153.52
2018-12-24T19:58:56.680Z,101154.91
2018-12-24T20:01:24.577Z,101154.23
2018-12-24T20:03:52.457Z,101147.63
2018-12-24T20:06:20.246Z,101144.84
2018-12-24T20:08:48.148Z,101143.25
2018-12-24T20:11:21.641Z,101132.92
2018-12-24T20:13:49.522Z,101123.39
2018-12-24T20:16:17.361Z,101114.00
2018-12-24T20:18:45.162Z,101102.52
2018-12-24T20:21:13.127Z,101090.37
2018-12-24T20:23:40.994Z,101091.00
2018-12-24T20:26:08.737Z,101097.67
2018-12-24T20:28:36.572Z,101103.97
2018-12-24T20:31:04.514Z,101102.38
2018-12-24T20:33:32.377Z,101109.34
2018-12-24T20:36:00.222Z,101108.44
2018-12-24T20:38:28.155Z,101115.50
2018-12-24T20:40:56.096Z,101108.72
2018-12-24T20:43:23.933Z,101107.85
2018-12-24T20:45:51.800Z,101097.59
2018-12-24T20:48:19.640Z,101089.83
2018-12-24T20:50:47.582Z,101095.52
2018-12-24T20:53:15.407Z,101104.94
2018-12-24T20:55:43.216Z,101112.52
2018-12-24T20:58:11.025Z,101119.05
2018-12-24T21:00:38.854Z,101122.41
2018-12-24T21:03:06.721Z,101124.25
2018-12-24T21:05:34.722Z,101125.05
2018-12-24T21:08:02.554Z,101134.27
2018-12-24T21:10:30.378Z,101140.69
2018-12-24T21:13:04.646Z,101140.47
2018-12-24T21:15:51.891Z,101143.20
2018-12-24T21:18:21.983Z,101145.91
2018-12-24T21:20:49.759Z,101157.67
2018-12-24T21:23:17.599Z,101165.91
2018-12-24T21:25:45.358Z,101170.33
2018-12-24T21:28:13.198Z,101171.59
2018-12-24T21:30:41.037Z,101176.09
2018-12-24T21:33:08.825Z,101174.48
2018-12-24T21:35:36.604Z,101173.84
2018-12-24T21:38:04.431Z,101181.16
2018-12-24T21:40:37.567Z,101182.62
2018-12-24T21:43:05.395Z,101186.65
2018-12-24T21:45:33.208Z,101194.34
2018-12-24T21:48:01.017Z,101197.59
2018-12-24T21:50:41.592Z,101199.61
2018-12-24T21:53:09.363Z,101212.33
2018-12-24T21:55:37.165Z,101207.97
2018-12-24T21:58:05.030Z,101196.77
2018-12-24T22:00:33.775Z,101202.95
2018-12-24T22:03:01.589Z,101210.58
2018-12-24T22:05:29.427Z,101211.50
2018-12-24T22:07:57.299Z,101221.55
2018-12-24T22:10:44.597Z,101222.03
2018-12-24T22:13:12.362Z,101222.73
2018-12-24T22:15:40.168Z,101227.02
2018-12-24T22:18:08.042Z,101233.78
2018-12-24T22:20:36.126Z,101241.52
2018-12-24T22:23:04.688Z,101242.58
2018-12-24T22:25:32.440Z,101236.63
2018-12-24T22:28:00.229Z,101237.34
2018-12-24T22:30:28.128Z,101236.86
2018-12-24T22:32:56.220Z,101236.47
2018-12-24T22:35:24.047Z,101241.77
2018-12-24T22:37:51.846Z,101240.09
2018-12-24T22:40:19.812Z,101243.06
2018-12-24T22:42:47.603Z,101243.98
2018-12-24T22:45:15.372Z,101249.48
2018-12-24T22:47:43.232Z,101247.33
2018-12-24T22:50:11.050Z,101245.83
2018-12-24T22:52:38.813Z,101254.14
2018-12-24T22:55:06.631Z,101256.09
2018-12-24T22:57:34.412Z,101259.99
2018-12-24T23:00:40.608Z,101258.53
2018-12-24T23:03:09.228Z,101260.11
2018-12-24T23:05:37.045Z,101264.31
2018-12-24T23:08:04.890Z,101263.08
2018-12-24T23:10:32.686Z,101265.66
2018-12-24T23:13:00.508Z,101268.16
2018-12-24T23:15:28.750Z,101272.59
2018-12-24T23:17:56.497Z,101274.64
2018-12-24T23:20:24.344Z,101269.50
2018-12-24T23:22:52.135Z,101264.92
2018-12-24T23:25:19.976Z,101272.10
2018-12-24T23:27:47.768Z,101267.03
2018-12-24T23:30:15.838Z,101261.70
2018-12-24T23:32:43.650Z,101262.99
2018-12-24T23:35:11.482Z,101261.36
2018-12-24T23:37:39.319Z,101262.98
2018-12-24T23:40:07.275Z,101267.09
2018-12-24T23:42:35.407Z,101261.53
2018-12-24T23:45:03.257Z,101256.72
2018-12-24T23:47:31.078Z,101256.72
2018-12-24T23:49:58.901Z,101253.73
2018-12-24T23:52:31.984Z,101246.41
2018-12-24T23:55:01.858Z,101231.20
2018-12-24T23:57:29.738Z,101235.04
2018-12-24T23:59:57.584Z,101232.22
